sensor_id;sensor_type;location;lat;lon;timestamp;pressure;altitude;pressure_sealevel;temperature;humidity
7026;BME280;3554;42.132;24.786;2023-02-28T00:00:10;99642.41;;;9.99;100.00
7026;BME280;3554;42.132;24.786;2023-02-28T00:02:37;99819.94;;;11.12;100.00
7026;BME280;3554;42.132;24.786;2023-02-28T00:05:05;99832.13;;;11.13;100.00
7026;BME280;3554;42.132;24.786;2023-02-28T00:07:32;99835.66;;;11.12;100.00
7026;BME280;3554;42.132;24.786;2023-02-28T00:10:00;99769.66;;;10.78;100.00
7026;BME280;3554;42.132;24.786;2023-02-28T00:12:27;99836.16;;;11.22;100.00
7026;BME280;3554;42.132;24.786;2023-02-28T00:14:55;99842.09;;;11.27;100.00
7026;BME280;3554;42.132;24.786;2023-02-28T00:17:21;99783.72;;;10.99;100.00
7026;BME280;3554;42.132;24.786;2023-02-28T00:19:49;99842.84;;;11.30;100.00
7026;BME280;3554;42.132;24.786;2023-02-28T00:22:17;99838.38;;;11.34;100.00
7026;BME280;3554;42.132;24.786;2023-02-28T00:24:44;99843.16;;;11.46;100.00
7026;BME280;3554;42.132;24.786;2023-02-28T00:27:11;99837.56;;;11.55;100.00
7026;BME280;3554;42.132;24.786;2023-02-28T00:29:38;99834.91;;;11.56;100.00
7026;BME280;3554;42.132;24.786;2023-02-28T00:32:06;99826.66;;;11.19;100.00
7026;BME280;3554;42.132;24.786;2023-02-28T00:34:33;99815.31;;;11.19;100.00
7026;BME280;3554;42.132;24.786;2023-02-28T00:37:03;99815.31;;;11.19;100.00
7026;BME280;3554;42.132;24.786;2023-02-28T00:39:31;99812.28;;;11.06;100.00
7026;BME280;3554;42.132;24.786;2023-02-28T00:41:57;99806.78;;;11.14;100.00
7026;BME280;3554;42.132;24.786;2023-02-28T00:44:24;99815.69;;;11.08;100.00
7026;BME280;3554;42.132;24.786;2023-02-28T00:46:51;99812.50;;;11.25;100.00
7026;BME280;3554;42.132;24.786;2023-02-28T00:49:20;99820.09;;;11.31;100.00
7026;BME280;3554;42.132;24.786;2023-02-28T00:51:47;99827.41;;;11.23;100.00
7026;BME280;3554;42.132;24.786;2023-02-28T00:54:14;99807.59;;;11.16;100.00
7026;BME280;3554;42.132;24.786;2023-02-28T00:56:41;99801.91;;;11.03;100.00
7026;BME280;3554;42.132;24.786;2023-02-28T00:59:08;99799.94;;;11.10;100.00
7026;BME280;3554;42.132;24.786;2023-02-28T01:01:36;99805.59;;;11.22;100.00
7026;BME280;3554;42.132;24.786;2023-02-28T01:04:03;99814.47;;;11.41;100.00
7026;BME280;3554;42.132;24.786;2023-02-28T01:06:32;99814.78;;;11.34;100.00
7026;BME280;3554;42.132;24.786;2023-02-28T01:08:59;99823.81;;;11.25;100.00
7026;BME280;3554;42.132;24.786;2023-02-28T01:11:26;99825.06;;;10.91;100.00
7026;BME280;3554;42.132;24.786;2023-02-28T01:13:52;99814.00;;;11.30;100.00
7026;BME280;3554;42.132;24.786;2023-02-28T01:16:19;99811.78;;;11.43;100.00
7026;BME280;3554;42.132;24.786;2023-02-28T01:18:46;99821.88;;;11.30;100.00
7026;BME280;3554;42.132;24.786;2023-02-28T01:21:15;99819.56;;;11.46;100.00
7026;BME280;3554;42.132;24.786;2023-02-28T01:23:43;99825.88;;;11.63;100.00
7026;BME280;3554;42.132;24.786;2023-02-28T01:26:13;99831.91;;;11.67;100.00
7026;BME280;3554;42.132;24.786;2023-02-28T01:28:40;99829.00;;;11.74;100.00
7026;BME280;3554;42.132;24.786;2023-02-28T01:31:08;99822.47;;;11.84;100.00
7026;BME280;3554;42.132;24.786;2023-02-28T01:33:35;99833.56;;;11.91;100.00
7026;BME280;3554;42.132;24.786;2023-02-28T01:36:04;99829.47;;;11.84;100.00
7026;BME280;3554;42.132;24.786;2023-02-28T01:38:33;99838.19;;;11.61;100.00
7026;BME280;3554;42.132;24.786;2023-02-28T01:41:02;99845.19;;;11.61;100.00
7026;BME280;3554;42.132;24.786;2023-02-28T01:43:30;99844.94;;;11.68;100.00
7026;BME280;3554;42.132;24.786;2023-02-28T01:45:58;99858.13;;;11.67;100.00
7026;BME280;3554;42.132;24.786;2023-02-28T01:48:28;99831.03;;;11.66;100.00
7026;BME280;3554;42.132;24.786;2023-02-28T01:51:00;99853.59;;;11.94;100.00
7026;BME280;3554;42.132;24.786;2023-02-28T01:53:32;99866.25;;;12.06;100.00
7026;BME280;3554;42.132;24.786;2023-02-28T01:56:04;99878.53;;;11.82;100.00
7026;BME280;3554;42.132;24.786;2023-02-28T01:58:32;99880.13;;;11.38;100.00
7026;BME280;3554;42.132;24.786;2023-02-28T02:00:59;99885.31;;;11.40;100.00
7026;BME280;3554;42.132;24.786;2023-02-28T02:03:29;99891.41;;;11.40;100.00
7026;BME280;3554;42.132;24.786;2023-02-28T02:05:56;99903.72;;;11.38;100.00
7026;BME280;3554;42.132;24.786;2023-02-28T02:08:25;99893.72;;;11.25;100.00
7026;BME280;3554;42.132;24.786;2023-02-28T02:10:55;99906.25;;;10.91;100.00
7026;BME280;3554;42.132;24.786;2023-02-28T02:13:34;99907.53;;;10.51;100.00
7026;BME280;3554;42.132;24.786;2023-02-28T02:16:11;99899.00;;;10.45;100.00
7026;BME280;3554;42.132;24.786;2023-02-28T02:18:49;99900.09;;;10.38;100.00
7026;BME280;3554;42.132;24.786;2023-02-28T02:24:38;99873.28;;;10.04;100.00
7026;BME280;3554;42.132;24.786;2023-02-28T02:27:25;99860.03;;;9.81;100.00
7026;BME280;3554;42.132;24.786;2023-02-28T02:30:17;99834.06;;;9.74;100.00
7026;BME280;3554;42.132;24.786;2023-02-28T02:33:08;99802.19;;;9.62;100.00
7026;BME280;3554;42.132;24.786;2023-02-28T02:35:43;99794.66;;;9.81;100.00
7026;BME280;3554;42.132;24.786;2023-02-28T02:38:20;99789.03;;;9.65;100.00
7026;BME280;3554;42.132;24.786;2023-02-28T02:40:56;99762.59;;;9.46;100.00
7026;BME280;3554;42.132;24.786;2023-02-28T02:43:28;99737.19;;;9.51;100.00
7026;BME280;3554;42.132;24.786;2023-02-28T02:45:59;99710.97;;;9.54;100.00
7026;BME280;3554;42.132;24.786;2023-02-28T02:48:33;99722.97;;;9.60;100.00
7026;BME280;3554;42.132;24.786;2023-02-28T02:51:06;99710.03;;;9.57;100.00
7026;BME280;3554;42.132;24.786;2023-02-28T02:53:40;99678.91;;;9.49;100.00
7026;BME280;3554;42.132;24.786;2023-02-28T02:56:08;99658.56;;;9.59;100.00
7026;BME280;3554;42.132;24.786;2023-02-28T02:58:38;99644.75;;;9.55;100.00
7026;BME280;3554;42.132;24.786;2023-02-28T03:01:10;99637.63;;;9.60;100.00
7026;BME280;3554;42.132;24.786;2023-02-28T03:03:37;99632.78;;;9.48;100.00
7026;BME280;3554;42.132;24.786;2023-02-28T03:06:06;99604.84;;;9.50;100.00
7026;BME280;3554;42.132;24.786;2023-02-28T03:08:35;99593.72;;;9.44;100.00
7026;BME280;3554;42.132;24.786;2023-02-28T03:11:04;99566.16;;;9.35;100.00
7026;BME280;3554;42.132;24.786;2023-02-28T03:13:42;99538.34;;;9.33;100.00
7026;BME280;3554;42.132;24.786;2023-02-28T03:16:30;99485.06;;;9.38;100.00
7026;BME280;3554;42.132;24.786;2023-02-28T03:19:08;99479.16;;;9.33;100.00
7026;BME280;3554;42.132;24.786;2023-02-28T03:21:44;99442.84;;;9.26;100.00
7026;BME280;3554;42.132;24.786;2023-02-28T03:24:19;99447.97;;;9.29;100.00
7026;BME280;3554;42.132;24.786;2023-02-28T03:26:54;99413.38;;;9.47;100.00
7026;BME280;3554;42.132;24.786;2023-02-28T03:29:30;99391.72;;;9.43;100.00
7026;BME280;3554;42.132;24.786;2023-02-28T03:32:06;99370.13;;;9.38;100.00
7026;BME280;3554;42.132;24.786;2023-02-28T03:34:42;99340.72;;;9.33;100.00
7026;BME280;3554;42.132;24.786;2023-02-28T03:37:18;99293.78;;;9.32;100.00
7026;BME280;3554;42.132;24.786;2023-02-28T03:39:49;99246.75;;;9.32;100.00
7026;BME280;3554;42.132;24.786;2023-02-28T03:42:20;99208.31;;;9.35;100.00
7026;BME280;3554;42.132;24.786;2023-02-28T03:44:51;99175.75;;;9.44;100.00
7026;BME280;3554;42.132;24.786;2023-02-28T03:47:22;99146.22;;;9.42;100.00
7026;BME280;3554;42.132;24.786;2023-02-28T03:49:53;99130.47;;;9.45;100.00
7026;BME280;3554;42.132;24.786;2023-02-28T03:52:26;99101.03;;;9.40;100.00
7026;BME280;3554;42.132;24.786;2023-02-28T03:54:56;99066.19;;;9.41;100.00
7026;BME280;3554;42.132;24.786;2023-02-28T03:57:30;99038.69;;;9.52;100.00
7026;BME280;3554;42.132;24.786;2023-02-28T04:00:02;99029.47;;;9.44;100.00
7026;BME280;3554;42.132;24.786;2023-02-28T04:02:31;99003.84;;;9.53;100.00
7026;BME280;3554;42.132;24.786;2023-02-28T04:04:59;98991.75;;;9.51;100.00
7026;BME280;3554;42.132;24.786;2023-02-28T04:07:31;98984.75;;;9.51;100.00
7026;BME280;3554;42.132;24.786;2023-02-28T04:09:58;98987.16;;;9.56;100.00
7026;BME280;3554;42.132;24.786;2023-02-28T04:12:25;98963.94;;;9.50;100.00
7026;BME280;3554;42.132;24.786;2023-02-28T04:14:52;98979.47;;;9.53;100.00
7026;BME280;3554;42.132;24.786;2023-02-28T04:17:19;98982.06;;;9.53;100.00
7026;BME280;3554;42.132;24.786;2023-02-28T04:19:46;98993.19;;;9.38;100.00
7026;BME280;3554;42.132;24.786;2023-02-28T04:22:12;98993.38;;;9.33;100.00
7026;BME280;3554;42.132;24.786;2023-02-28T04:24:41;98989.84;;;9.34;100.00
7026;BME280;3554;42.132;24.786;2023-02-28T04:27:08;98979.78;;;9.25;100.00
7026;BME280;3554;42.132;24.786;2023-02-28T04:29:36;98966.91;;;9.21;100.00
7026;BME280;3554;42.132;24.786;2023-02-28T04:32:03;98960.72;;;9.23;100.00
7026;BME280;3554;42.132;24.786;2023-02-28T04:34:31;98950.63;;;9.36;100.00
7026;BME280;3554;42.132;24.786;2023-02-28T04:36:58;98961.94;;;9.35;100.00
7026;BME280;3554;42.132;24.786;2023-02-28T04:39:25;98968.09;;;9.34;100.00
7026;BME280;3554;42.132;24.786;2023-02-28T04:41:54;98967.25;;;9.33;100.00
7026;BME280;3554;42.132;24.786;2023-02-28T04:44:21;98987.41;;;9.30;100.00
7026;BME280;3554;42.132;24.786;2023-02-28T04:46:48;98991.75;;;9.31;100.00
7026;BME280;3554;42.132;24.786;2023-02-28T04:49:15;99007.34;;;9.32;100.00
7026;BME280;3554;42.132;24.786;2023-02-28T04:51:42;99025.16;;;9.23;100.00
7026;BME280;3554;42.132;24.786;2023-02-28T04:54:09;99038.63;;;9.12;100.00
7026;BME280;3554;42.132;24.786;2023-02-28T04:56:36;99028.13;;;9.14;100.00
7026;BME280;3554;42.132;24.786;2023-02-28T04:59:04;99029.06;;;9.13;100.00
7026;BME280;3554;42.132;24.786;2023-02-28T05:01:32;99037.34;;;9.01;100.00
7026;BME280;3554;42.132;24.786;2023-02-28T05:04:01;99051.81;;;9.09;100.00
7026;BME280;3554;42.132;24.786;2023-02-28T05:06:29;99065.59;;;9.13;100.00
7026;BME280;3554;42.132;24.786;2023-02-28T05:08:57;99062.72;;;8.97;100.00
7026;BME280;3554;42.132;24.786;2023-02-28T05:11:25;99065.81;;;9.07;100.00
7026;BME280;3554;42.132;24.786;2023-02-28T05:13:54;99086.34;;;9.16;100.00
7026;BME280;3554;42.132;24.786;2023-02-28T05:16:23;99097.94;;;9.09;100.00
7026;BME280;3554;42.132;24.786;2023-02-28T05:18:49;99121.66;;;9.03;100.00
7026;BME280;3554;42.132;24.786;2023-02-28T05:21:34;99127.38;;;8.91;100.00
7026;BME280;3554;42.132;24.786;2023-02-28T05:24:03;99107.47;;;8.88;100.00
7026;BME280;3554;42.132;24.786;2023-02-28T05:26:34;98966.53;;;7.99;100.00
7026;BME280;3554;42.132;24.786;2023-02-28T05:29:01;99105.53;;;8.93;100.00
7026;BME280;3554;42.132;24.786;2023-02-28T05:31:29;99101.09;;;8.95;100.00
7026;BME280;3554;42.132;24.786;2023-02-28T05:33:56;99116.63;;;8.98;100.00
7026;BME280;3554;42.132;24.786;2023-02-28T05:36:23;99120.09;;;8.99;100.00
7026;BME280;3554;42.132;24.786;2023-02-28T05:38:51;99133.25;;;8.96;100.00
7026;BME280;3554;42.132;24.786;2023-02-28T05:41:19;99135.78;;;8.99;100.00
7026;BME280;3554;42.132;24.786;2023-02-28T05:43:46;99140.56;;;9.09;100.00
7026;BME280;3554;42.132;24.786;2023-02-28T05:46:13;99172.91;;;9.05;100.00
7026;BME280;3554;42.132;24.786;2023-02-28T05:48:42;99159.13;;;9.02;100.00
7026;BME280;3554;42.132;24.786;2023-02-28T05:51:11;99181.50;;;9.09;100.00
7026;BME280;3554;42.132;24.786;2023-02-28T05:53:38;99205.94;;;9.06;100.00
7026;BME280;3554;42.132;24.786;2023-02-28T05:56:05;99210.00;;;9.15;100.00
7026;BME280;3554;42.132;24.786;2023-02-28T05:58:32;99223.25;;;9.09;100.00
7026;BME280;3554;42.132;24.786;2023-02-28T06:01:00;99232.16;;;9.03;100.00
7026;BME280;3554;42.132;24.786;2023-02-28T06:03:27;99231.31;;;9.03;100.00
7026;BME280;3554;42.132;24.786;2023-02-28T06:05:55;99226.03;;;9.04;100.00
7026;BME280;3554;42.132;24.786;2023-02-28T06:08:22;99232.28;;;9.00;100.00
7026;BME280;3554;42.132;24.786;2023-02-28T06:10:49;99234.03;;;9.00;100.00
7026;BME280;3554;42.132;24.786;2023-02-28T06:13:16;99227.97;;;8.99;100.00
7026;BME280;3554;42.132;24.786;2023-02-28T06:15:43;99238.34;;;9.01;100.00
7026;BME280;3554;42.132;24.786;2023-02-28T06:18:09;99241.59;;;9.07;100.00
7026;BME280;3554;42.132;24.786;2023-02-28T06:20:36;99240.59;;;9.11;100.00
7026;BME280;3554;42.132;24.786;2023-02-28T06:23:04;99253.03;;;9.03;100.00
7026;BME280;3554;42.132;24.786;2023-02-28T06:25:31;99261.06;;;8.99;100.00
7026;BME280;3554;42.132;24.786;2023-02-28T06:27:58;99249.88;;;8.95;100.00
7026;BME280;3554;42.132;24.786;2023-02-28T06:30:25;99236.47;;;9.04;100.00
7026;BME280;3554;42.132;24.786;2023-02-28T06:32:53;99242.72;;;9.00;100.00
7026;BME280;3554;42.132;24.786;2023-02-28T06:35:20;99239.31;;;8.98;100.00
7026;BME280;3554;42.132;24.786;2023-02-28T06:37:47;99241.66;;;9.06;100.00
7026;BME280;3554;42.132;24.786;2023-02-28T06:40:16;99244.03;;;9.12;100.00
7026;BME280;3554;42.132;24.786;2023-02-28T06:42:43;99263.44;;;9.05;100.00
7026;BME280;3554;42.132;24.786;2023-02-28T06:45:10;99248.16;;;8.94;100.00
7026;BME280;3554;42.132;24.786;2023-02-28T06:47:38;99250.28;;;9.08;100.00
7026;BME280;3554;42.132;24.786;2023-02-28T06:50:07;99255.50;;;9.31;100.00
7026;BME280;3554;42.132;24.786;2023-02-28T06:52:34;99273.44;;;9.40;100.00
7026;BME280;3554;42.132;24.786;2023-02-28T06:55:03;99311.84;;;9.61;100.00
7026;BME280;3554;42.132;24.786;2023-02-28T06:57:32;99362.28;;;9.38;100.00
7026;BME280;3554;42.132;24.786;2023-02-28T07:00:00;99390.47;;;9.30;100.00
7026;BME280;3554;42.132;24.786;2023-02-28T07:02:28;99382.56;;;9.32;100.00
7026;BME280;3554;42.132;24.786;2023-02-28T07:04:55;99386.09;;;9.31;100.00
7026;BME280;3554;42.132;24.786;2023-02-28T07:07:21;99385.13;;;9.33;100.00
7026;BME280;3554;42.132;24.786;2023-02-28T07:09:48;99396.00;;;9.21;100.00
7026;BME280;3554;42.132;24.786;2023-02-28T07:12:15;99380.59;;;9.14;100.00
7026;BME280;3554;42.132;24.786;2023-02-28T07:14:43;99376.59;;;9.28;100.00
7026;BME280;3554;42.132;24.786;2023-02-28T07:17:11;99381.75;;;9.30;100.00
7026;BME280;3554;42.132;24.786;2023-02-28T07:19:38;99383.13;;;9.40;100.00
7026;BME280;3554;42.132;24.786;2023-02-28T07:22:05;99404.50;;;9.51;100.00
7026;BME280;3554;42.132;24.786;2023-02-28T07:24:33;99413.16;;;9.28;100.00
7026;BME280;3554;42.132;24.786;2023-02-28T07:27:00;99450.66;;;9.26;100.00
7026;BME280;3554;42.132;24.786;2023-02-28T07:29:27;99447.00;;;9.31;100.00
7026;BME280;3554;42.132;24.786;2023-02-28T07:31:56;99451.41;;;9.31;100.00
7026;BME280;3554;42.132;24.786;2023-02-28T07:34:23;99452.41;;;9.27;100.00
7026;BME280;3554;42.132;24.786;2023-02-28T07:36:52;99459.09;;;9.09;100.00
7026;BME280;3554;42.132;24.786;2023-02-28T07:39:20;99424.84;;;8.92;100.00
7026;BME280;3554;42.132;24.786;2023-02-28T07:41:46;99427.00;;;9.06;100.00
7026;BME280;3554;42.132;24.786;2023-02-28T07:44:13;99405.84;;;9.13;100.00
7026;BME280;3554;42.132;24.786;2023-02-28T07:46:40;99396.63;;;9.28;100.00
7026;BME280;3554;42.132;24.786;2023-02-28T07:49:08;99408.31;;;9.18;100.00
7026;BME280;3554;42.132;24.786;2023-02-28T07:51:35;99402.91;;;9.22;100.00
7026;BME280;3554;42.132;24.786;2023-02-28T07:54:02;99398.50;;;9.24;100.00
7026;BME280;3554;42.132;24.786;2023-02-28T07:56:29;99403.84;;;9.21;100.00
7026;BME280;3554;42.132;24.786;2023-02-28T07:58:56;99429.25;;;9.16;100.00
7026;BME280;3554;42.132;24.786;2023-02-28T08:01:22;99415.16;;;9.22;100.00
7026;BME280;3554;42.132;24.786;2023-02-28T08:03:49;99398.63;;;9.21;100.00
7026;BME280;3554;42.132;24.786;2023-02-28T08:06:21;99397.25;;;9.11;100.00
7026;BME280;3554;42.132;24.786;2023-02-28T08:08:48;99413.03;;;9.07;100.00
7026;BME280;3554;42.132;24.786;2023-02-28T08:11:15;99391.28;;;9.06;100.00
7026;BME280;3554;42.132;24.786;2023-02-28T08:13:42;99373.56;;;9.16;100.00
7026;BME280;3554;42.132;24.786;2023-02-28T08:16:10;99362.69;;;9.28;100.00
7026;BME280;3554;42.132;24.786;2023-02-28T08:18:39;99381.44;;;9.14;100.00
7026;BME280;3554;42.132;24.786;2023-02-28T08:21:07;99369.19;;;9.16;100.00
7026;BME280;3554;42.132;24.786;2023-02-28T08:23:35;99360.88;;;9.30;100.00
7026;BME280;3554;42.132;24.786;2023-02-28T08:26:02;99367.47;;;9.40;100.00
7026;BME280;3554;42.132;24.786;2023-02-28T08:28:29;99382.78;;;9.50;100.00
7026;BME280;3554;42.132;24.786;2023-02-28T08:30:56;99418.56;;;9.48;100.00
7026;BME280;3554;42.132;24.786;2023-02-28T08:33:24;99407.56;;;9.39;100.00
7026;BME280;3554;42.132;24.786;2023-02-28T08:35:53;99422.53;;;9.58;100.00
7026;BME280;3554;42.132;24.786;2023-02-28T08:38:20;99456.44;;;9.60;100.00
7026;BME280;3554;42.132;24.786;2023-02-28T08:40:49;99478.09;;;9.63;100.00
7026;BME280;3554;42.132;24.786;2023-02-28T08:43:15;99488.28;;;9.46;100.00
7026;BME280;3554;42.132;24.786;2023-02-28T08:45:42;99466.81;;;9.12;100.00
7026;BME280;3554;42.132;24.786;2023-02-28T08:48:09;99499.44;;;9.51;100.00
7026;BME280;3554;42.132;24.786;2023-02-28T08:50:36;99498.78;;;9.45;100.00
7026;BME280;3554;42.132;24.786;2023-02-28T08:53:02;99509.44;;;9.63;100.00
7026;BME280;3554;42.132;24.786;2023-02-28T08:55:29;99520.22;;;9.79;100.00
7026;BME280;3554;42.132;24.786;2023-02-28T08:57:57;99554.38;;;9.74;100.00
7026;BME280;3554;42.132;24.786;2023-02-28T09:00:24;99553.19;;;9.83;100.00
7026;BME280;3554;42.132;24.786;2023-02-28T09:02:51;99579.50;;;9.79;100.00
7026;BME280;3554;42.132;24.786;2023-02-28T09:05:18;99588.25;;;9.77;100.00
7026;BME280;3554;42.132;24.786;2023-02-28T09:07:45;99586.53;;;9.77;100.00
7026;BME280;3554;42.132;24.786;2023-02-28T09:10:11;99593.31;;;9.82;100.00
7026;BME280;3554;42.132;24.786;2023-02-28T09:12:38;99625.69;;;9.78;100.00
7026;BME280;3554;42.132;24.786;2023-02-28T09:15:08;99606.16;;;9.88;100.00
7026;BME280;3554;42.132;24.786;2023-02-28T09:17:35;99632.69;;;9.77;100.00
7026;BME280;3554;42.132;24.786;2023-02-28T09:20:01;99624.13;;;9.72;100.00
7026;BME280;3554;42.132;24.786;2023-02-28T09:22:28;99616.47;;;9.68;100.00
7026;BME280;3554;42.132;24.786;2023-02-28T09:24:55;99605.75;;;9.49;100.00
7026;BME280;3554;42.132;24.786;2023-02-28T09:27:22;99573.50;;;9.50;100.00
7026;BME280;3554;42.132;24.786;2023-02-28T09:29:49;99561.31;;;9.49;100.00
7026;BME280;3554;42.132;24.786;2023-02-28T09:32:17;99537.50;;;9.58;100.00
7026;BME280;3554;42.132;24.786;2023-02-28T09:34:44;99532.59;;;9.49;100.00
7026;BME280;3554;42.132;24.786;2023-02-28T09:37:11;99518.59;;;9.52;100.00
7026;BME280;3554;42.132;24.786;2023-02-28T09:39:37;99513.63;;;9.69;100.00
7026;BME280;3554;42.132;24.786;2023-02-28T09:42:04;99525.78;;;9.70;100.00
7026;BME280;3554;42.132;24.786;2023-02-28T09:44:35;99543.41;;;9.63;100.00
7026;BME280;3554;42.132;24.786;2023-02-28T09:47:10;99538.63;;;9.51;100.00
7026;BME280;3554;42.132;24.786;2023-02-28T09:49:43;99479.56;;;9.21;100.00
7026;BME280;3554;42.132;24.786;2023-02-28T09:52:15;99539.91;;;9.64;100.00
7026;BME280;3554;42.132;24.786;2023-02-28T09:54:44;99538.56;;;9.53;100.00
7026;BME280;3554;42.132;24.786;2023-02-28T09:57:19;99549.25;;;9.47;100.00
7026;BME280;3554;42.132;24.786;2023-02-28T10:00:02;99529.34;;;9.67;100.00
7026;BME280;3554;42.132;24.786;2023-02-28T10:05:52;99520.06;;;9.59;100.00
7026;BME280;3554;42.132;24.786;2023-02-28T10:08:25;99513.72;;;9.66;100.00
7026;BME280;3554;42.132;24.786;2023-02-28T10:10:55;99489.56;;;9.84;100.00
7026;BME280;3554;42.132;24.786;2023-02-28T10:13:27;99511.16;;;9.89;100.00
7026;BME280;3554;42.132;24.786;2023-02-28T10:16:02;99534.69;;;9.89;100.00
7026;BME280;3554;42.132;24.786;2023-02-28T10:18:40;99549.94;;;9.77;100.00
7026;BME280;3554;42.132;24.786;2023-02-28T10:21:16;99554.44;;;9.73;100.00
7026;BME280;3554;42.132;24.786;2023-02-28T10:23:45;99551.69;;;9.76;100.00
7026;BME280;3554;42.132;24.786;2023-02-28T10:26:17;99512.56;;;9.50;100.00
7026;BME280;3554;42.132;24.786;2023-02-28T10:28:44;99532.00;;;9.41;100.00
7026;BME280;3554;42.132;24.786;2023-02-28T10:31:15;99505.88;;;9.41;100.00
7026;BME280;3554;42.132;24.786;2023-02-28T10:33:43;99482.09;;;9.49;100.00
7026;BME280;3554;42.132;24.786;2023-02-28T10:36:14;99459.97;;;9.34;100.00
7026;BME280;3554;42.132;24.786;2023-02-28T10:38:42;99435.75;;;9.29;100.00
7026;BME280;3554;42.132;24.786;2023-02-28T10:41:11;99417.47;;;9.29;100.00
7026;BME280;3554;42.132;24.786;2023-02-28T10:43:40;99421.03;;;9.51;100.00
7026;BME280;3554;42.132;24.786;2023-02-28T10:46:14;99428.03;;;9.51;100.00
7026;BME280;3554;42.132;24.786;2023-02-28T10:49:01;99430.31;;;9.60;100.00
7026;BME280;3554;42.132;24.786;2023-02-28T10:51:37;99412.03;;;9.35;100.00
7026;BME280;3554;42.132;24.786;2023-02-28T10:54:04;99449.47;;;9.36;100.00
7026;BME280;3554;42.132;24.786;2023-02-28T10:56:32;99427.44;;;9.18;100.00
7026;BME280;3554;42.132;24.786;2023-02-28T10:59:01;99388.97;;;9.23;100.00
7026;BME280;3554;42.132;24.786;2023-02-28T11:01:38;99390.19;;;9.38;100.00
7026;BME280;3554;42.132;24.786;2023-02-28T11:04:17;99392.16;;;9.31;100.00
7026;BME280;3554;42.132;24.786;2023-02-28T11:06:46;99377.41;;;9.30;100.00
7026;BME280;3554;42.132;24.786;2023-02-28T11:09:21;99384.75;;;9.19;100.00
7026;BME280;3554;42.132;24.786;2023-02-28T11:11:49;99347.56;;;9.13;100.00
7026;BME280;3554;42.132;24.786;2023-02-28T11:14:20;99336.16;;;9.15;100.00
7026;BME280;3554;42.132;24.786;2023-02-28T11:16:48;99304.72;;;9.18;100.00
7026;BME280;3554;42.132;24.786;2023-02-28T11:19:18;99269.06;;;9.17;100.00
7026;BME280;3554;42.132;24.786;2023-02-28T11:21:55;99259.81;;;9.09;100.00
7026;BME280;3554;42.132;24.786;2023-02-28T11:24:25;99235.19;;;9.16;100.00
7026;BME280;3554;42.132;24.786;2023-02-28T11:26:54;99193.34;;;8.94;100.00
7026;BME280;3554;42.132;24.786;2023-02-28T11:29:23;99161.75;;;9.02;100.00
7026;BME280;3554;42.132;24.786;2023-02-28T11:32:03;99111.34;;;9.00;100.00
7026;BME280;3554;42.132;24.786;2023-02-28T11:34:31;99075.53;;;9.03;100.00
7026;BME280;3554;42.132;24.786;2023-02-28T11:37:01;99036.09;;;9.11;100.00
7026;BME280;3554;42.132;24.786;2023-02-28T11:39:30;98999.47;;;8.91;100.00
7026;BME280;3554;42.132;24.786;2023-02-28T11:42:08;98961.66;;;9.01;100.00
7026;BME280;3554;42.132;24.786;2023-02-28T11:44:47;98905.56;;;9.11;100.00
7026;BME280;3554;42.132;24.786;2023-02-28T11:47:27;98872.59;;;9.08;100.00
7026;BME280;3554;42.132;24.786;2023-02-28T11:50:04;98840.16;;;8.94;100.00
7026;BME280;3554;42.132;24.786;2023-02-28T11:52:44;98793.06;;;8.97;100.00
7026;BME280;3554;42.132;24.786;2023-02-28T11:55:17;98744.13;;;9.02;100.00
7026;BME280;3554;42.132;24.786;2023-02-28T11:58:13;98676.75;;;9.10;100.00
7026;BME280;3554;42.132;24.786;2023-02-28T12:01:07;98656.41;;;8.98;100.00
7026;BME280;3554;42.132;24.786;2023-02-28T12:03:43;98615.78;;;8.92;100.00
7026;BME280;3554;42.132;24.786;2023-02-28T12:06:18;98561.84;;;8.93;100.00
7026;BME280;3554;42.132;24.786;2023-02-28T12:08:57;98504.06;;;9.00;100.00
7026;BME280;3554;42.132;24.786;2023-02-28T12:11:36;98455.81;;;9.09;100.00
7026;BME280;3554;42.132;24.786;2023-02-28T12:14:25;98434.38;;;9.02;100.00
7026;BME280;3554;42.132;24.786;2023-02-28T12:17:03;98403.13;;;9.01;100.00
7026;BME280;3554;42.132;24.786;2023-02-28T12:19:43;98381.56;;;8.97;100.00
7026;BME280;3554;42.132;24.786;2023-02-28T12:22:29;98316.34;;;8.63;100.00
7026;BME280;3554;42.132;24.786;2023-02-28T12:25:22;98287.38;;;8.85;100.00
7026;BME280;3554;42.132;24.786;2023-02-28T12:27:51;98278.34;;;8.92;100.00
7026;BME280;3554;42.132;24.786;2023-02-28T12:30:22;98238.84;;;8.82;100.00
7026;BME280;3554;42.132;24.786;2023-02-28T12:32:54;98180.69;;;8.80;100.00
7026;BME280;3554;42.132;24.786;2023-02-28T12:35:26;98146.03;;;8.94;100.00
7026;BME280;3554;42.132;24.786;2023-02-28T12:37:57;98110.25;;;8.96;100.00
7026;BME280;3554;42.132;24.786;2023-02-28T12:40:43;98069.28;;;8.98;100.00
7026;BME280;3554;42.132;24.786;2023-02-28T12:43:13;98034.84;;;9.07;100.00
7026;BME280;3554;42.132;24.786;2023-02-28T12:45:44;98005.13;;;8.94;100.00
7026;BME280;3554;42.132;24.786;2023-02-28T12:48:21;98007.16;;;8.89;100.00
7026;BME280;3554;42.132;24.786;2023-02-28T12:50:51;97970.13;;;8.82;100.00
7026;BME280;3554;42.132;24.786;2023-02-28T12:53:23;97934.38;;;8.84;100.00
7026;BME280;3554;42.132;24.786;2023-02-28T12:56:01;97930.13;;;8.97;100.00
7026;BME280;3554;42.132;24.786;2023-02-28T12:58:34;97912.63;;;8.99;100.00
7026;BME280;3554;42.132;24.786;2023-02-28T13:01:38;97899.19;;;8.91;100.00
7026;BME280;3554;42.132;24.786;2023-02-28T13:04:27;97879.50;;;8.86;100.00
7026;BME280;3554;42.132;24.786;2023-02-28T13:07:08;97859.53;;;8.85;100.00
7026;BME280;3554;42.132;24.786;2023-02-28T13:09:38;97822.97;;;8.86;100.00
7026;BME280;3554;42.132;24.786;2023-02-28T13:12:14;97789.59;;;8.77;100.00
7026;BME280;3554;42.132;24.786;2023-02-28T13:14:42;97726.22;;;8.61;100.00
7026;BME280;3554;42.132;24.786;2023-02-28T13:17:14;97731.56;;;9.02;100.00
7026;BME280;3554;42.132;24.786;2023-02-28T13:19:46;97684.59;;;8.59;100.00
7026;BME280;3554;42.132;24.786;2023-02-28T13:22:37;97659.81;;;8.81;100.00
7026;BME280;3554;42.132;24.786;2023-02-28T13:31:19;97424.19;;;8.68;100.00
7026;BME280;3554;42.132;24.786;2023-02-28T13:34:13;97343.94;;;8.58;100.00
7026;BME280;3554;42.132;24.786;2023-02-28T13:36:40;97302.69;;;8.65;100.00
7026;BME280;3554;42.132;24.786;2023-02-28T13:42:32;97247.50;;;8.71;100.00